Time;durP1;ratioP1;P1;durP2;ratioP2;P2;SDS_P1;SDS_P2;PMS_P1;PMS_P2;Temp;Humidity;BMP_temperature;BMP_pressure;BME280_temperature;BME280_humidity;BME280_pressure;Samples;Min_cycle;Max_cycle;Signal;HPM_P1;HPM_P2
2021/01/18 00:01:23;;;;;;;4.15;3.78;;;18.50;63.20;;;;;;5095526;28;20031;-45
2021/01/18 00:03:49;;;;;;;4.45;3.80;;;18.50;63.00;;;;;;5092678;28;20028;-43
2021/01/18 00:06:18;;;;;;;3.80;3.50;;;18.50;62.90;;;;;;5093828;28;20055;-44
2021/01/18 00:08:44;;;;;;;3.75;3.25;;;18.50;62.90;;;;;;5095165;28;20035;-40
2021/01/18 00:11:10;;;;;;;4.80;3.78;;;18.50;63.00;;;;;;5095205;28;20063;-42
2021/01/18 00:13:36;;;;;;;5.60;3.70;;;18.50;62.80;;;;;;5093805;28;20111;-42
2021/01/18 00:16:02;;;;;;;3.42;3.13;;;18.40;62.90;;;;;;5094888;28;20103;-40
2021/01/18 00:18:29;;;;;;;4.57;3.55;;;18.50;62.80;;;;;;5090943;27;20033;-40
2021/01/18 00:20:55;;;;;;;4.35;3.50;;;18.50;62.70;;;;;;5096858;28;20020;-36
2021/01/18 00:23:20;;;;;;;3.70;3.40;;;18.40;62.60;;;;;;5094933;28;20097;-39
2021/01/18 00:25:46;;;;;;;4.05;3.75;;;18.40;62.80;;;;;;5096021;28;20123;-39
2021/01/18 00:28:11;;;;;;;4.07;3.70;;;18.40;62.90;;;;;;5090869;28;20017;-39
2021/01/18 00:30:39;;;;;;;3.55;3.25;;;18.40;62.60;;;;;;5104412;28;20409;-37
2021/01/18 00:33:04;;;;;;;4.28;3.97;;;18.40;62.60;;;;;;5108314;28;20028;-40
2021/01/18 00:35:31;;;;;;;3.95;3.65;;;18.40;62.70;;;;;;5095137;28;20077;-38
2021/01/18 00:37:57;;;;;;;3.50;3.20;;;18.40;62.70;;;;;;5093904;28;20028;-40
2021/01/18 00:40:24;;;;;;;5.00;3.60;;;18.40;62.60;;;;;;5094659;28;20034;-39
2021/01/18 00:42:49;;;;;;;3.53;3.33;;;18.30;62.50;;;;;;5092872;28;20409;-40
2021/01/18 00:45:16;;;;;;;3.40;3.08;;;18.30;62.50;;;;;;5092782;28;20036;-38
2021/01/18 00:47:46;;;;;;;3.90;3.30;;;18.30;62.70;;;;;;5094478;28;20085;-26
2021/01/18 00:50:16;;;;;;;3.30;3.10;;;18.30;62.70;;;;;;5092700;28;20486;-40
2021/01/18 00:52:46;;;;;;;3.10;2.90;;;18.30;62.60;;;;;;5093848;28;20018;-39
2021/01/18 00:55:13;;;;;;;3.00;2.80;;;18.30;62.50;;;;;;5094122;28;20189;-39
2021/01/18 00:57:39;;;;;;;2.90;2.70;;;18.30;63.30;;;;;;5093002;28;20028;-39
2021/01/18 01:00:09;;;;;;;3.13;2.92;;;18.30;62.60;;;;;;5094104;28;20031;-40
2021/01/18 01:02:38;;;;;;;3.55;3.25;;;18.30;62.70;;;;;;5104272;28;20101;-39
2021/01/18 01:05:05;;;;;;;3.08;2.88;;;18.20;62.60;;;;;;5094691;28;20070;-39
2021/01/18 01:07:30;;;;;;;3.40;3.20;;;18.20;62.60;;;;;;5094596;28;20493;-39
2021/01/18 01:09:56;;;;;;;3.60;3.30;;;18.20;62.60;;;;;;5090041;28;20027;-39
2021/01/18 01:12:22;;;;;;;3.65;3.35;;;18.20;62.80;;;;;;5091008;28;20462;-39
2021/01/18 01:14:48;;;;;;;3.60;3.28;;;18.20;62.70;;;;;;5095498;28;20039;-39
2021/01/18 01:17:14;;;;;;;3.58;3.28;;;18.20;62.80;;;;;;5093226;28;20035;-39
2021/01/18 01:19:39;;;;;;;3.75;3.45;;;18.20;62.90;;;;;;5094869;28;20028;-39
2021/01/18 01:22:05;;;;;;;3.63;3.28;;;18.20;62.80;;;;;;5093985;28;20084;-39
2021/01/18 01:24:30;;;;;;;4.28;3.15;;;18.10;62.70;;;;;;5089250;28;20409;-40
2021/01/18 01:26:56;;;;;;;3.25;3.05;;;18.10;62.80;;;;;;5096266;28;20121;-39
2021/01/18 01:29:22;;;;;;;4.63;3.22;;;18.10;62.80;;;;;;5093285;28;20039;-40
2021/01/18 01:31:47;;;;;;;3.28;3.00;;;18.10;62.80;;;;;;5094990;28;20063;-42
2021/01/18 01:34:13;;;;;;;3.33;3.13;;;18.10;62.80;;;;;;5104560;28;20028;-39
2021/01/18 01:36:42;;;;;;;3.67;3.38;;;18.10;62.70;;;;;;5091075;28;20501;-38
2021/01/18 01:39:08;;;;;;;3.72;3.42;;;18.10;62.80;;;;;;5095646;28;20035;-40
2021/01/18 01:41:33;;;;;;;3.58;3.28;;;18.10;62.70;;;;;;5096810;28;20024;-39
2021/01/18 01:43:59;;;;;;;3.33;3.13;;;18.10;62.90;;;;;;5095863;28;20042;-39
2021/01/18 01:46:25;;;;;;;3.55;2.90;;;18.10;62.90;;;;;;5095794;28;20513;-41
2021/01/18 01:48:50;;;;;;;3.58;3.30;;;18.10;63.00;;;;;;5092186;28;20025;-39
2021/01/18 01:51:16;;;;;;;3.80;3.50;;;18.10;63.00;;;;;;5093320;28;20027;-39
2021/01/18 01:53:41;;;;;;;3.67;3.35;;;18.00;63.00;;;;;;5079553;28;20473;-39
2021/01/18 01:56:07;;;;;;;3.05;2.85;;;18.00;63.20;;;;;;5094634;28;20032;-39
2021/01/18 01:58:32;;;;;;;3.53;2.65;;;18.00;63.20;;;;;;5076493;28;20021;-40
2021/01/18 02:00:58;;;;;;;3.13;2.92;;;18.00;63.10;;;;;;5102054;28;20067;-39
2021/01/18 02:03:42;;;;;;;3.00;2.80;;;18.00;63.30;;;;;;5105921;28;20552;-39
2021/01/18 02:06:08;;;;;;;3.33;3.13;;;18.00;63.00;;;;;;5105485;28;20178;-37
2021/01/18 02:08:34;;;;;;;3.00;2.80;;;18.00;63.50;;;;;;5096341;28;20465;-39
2021/01/18 02:11:01;;;;;;;3.60;3.00;;;17.90;63.40;;;;;;5094139;28;20070;-44
2021/01/18 02:13:58;;;;;;;3.58;2.80;;;17.90;63.10;;;;;;5095465;28;20024;-40
2021/01/18 02:16:33;;;;;;;2.70;2.50;;;17.90;63.20;;;;;;5094434;28;20034;-40
2021/01/18 02:19:37;;;;;;;2.80;2.60;;;17.90;63.40;;;;;;5093489;28;20504;-39
2021/01/18 02:22:32;;;;;;;2.83;2.63;;;17.90;63.40;;;;;;5082267;28;20039;-40
2021/01/18 02:25:38;;;;;;;2.75;2.55;;;17.90;63.50;;;;;;5061091;28;20048;-40
2021/01/18 02:28:12;;;;;;;3.28;2.85;;;17.90;63.40;;;;;;5075349;28;20500;-41
2021/01/18 02:30:56;;;;;;;2.30;2.20;;;17.90;63.40;;;;;;5052746;28;20425;-38
2021/01/18 02:33:27;;;;;;;2.50;2.30;;;17.90;63.60;;;;;;5086038;28;20161;-40
2021/01/18 02:36:11;;;;;;;2.80;2.60;;;17.90;63.40;;;;;;5063748;28;20519;-42
2021/01/18 02:38:57;;;;;;;2.55;2.35;;;17.90;63.40;;;;;;5073785;28;20038;-41
2021/01/18 02:41:35;;;;;;;2.45;2.33;;;17.90;63.80;;;;;;5059618;28;20035;-44
2021/01/18 02:44:03;;;;;;;2.78;2.58;;;17.90;63.90;;;;;;5056894;28;20060;-41
2021/01/18 02:46:29;;;;;;;2.75;2.33;;;17.90;64.00;;;;;;5056623;28;20055;-40
2021/01/18 02:48:55;;;;;;;2.38;2.28;;;17.90;64.40;;;;;;5056168;28;20544;-40
2021/01/18 02:51:21;;;;;;;2.70;2.50;;;17.90;63.80;;;;;;5054232;28;20029;-40
2021/01/18 02:53:55;;;;;;;2.72;2.55;;;17.80;63.60;;;;;;5068427;28;20073;-41
2021/01/18 02:56:24;;;;;;;2.88;2.67;;;17.90;63.80;;;;;;5074442;28;20043;-40
2021/01/18 02:58:49;;;;;;;2.58;2.38;;;17.90;63.70;;;;;;5056808;28;20486;-39
2021/01/18 03:01:15;;;;;;;2.47;2.30;;;17.90;64.00;;;;;;5077626;28;20040;-40
2021/01/18 03:03:48;;;;;;;2.70;2.50;;;17.90;63.90;;;;;;5088233;28;20702;-40
2021/01/18 03:06:30;;;;;;;2.60;2.40;;;17.80;64.20;;;;;;5091761;28;20083;-41
2021/01/18 03:08:58;;;;;;;2.17;2.08;;;17.80;64.30;;;;;;5095273;28;20335;-40
2021/01/18 03:11:27;;;;;;;2.20;2.10;;;17.80;64.30;;;;;;5094978;28;20020;-40
2021/01/18 03:13:57;;;;;;;2.35;2.25;;;17.80;64.30;;;;;;5098529;28;20020;-39
2021/01/18 03:16:24;;;;;;;2.30;2.10;;;17.80;64.40;;;;;;5098710;28;20023;-38
2021/01/18 03:18:50;;;;;;;2.65;2.45;;;17.80;64.20;;;;;;5105812;28;20073;-40
2021/01/18 03:21:16;;;;;;;3.22;2.28;;;17.80;64.30;;;;;;5095893;28;20020;-40
2021/01/18 03:23:42;;;;;;;2.13;1.92;;;17.80;64.40;;;;;;5097136;28;20082;-42
2021/01/18 03:26:08;;;;;;;2.17;2.08;;;17.80;64.40;;;;;;5098361;28;20036;-40
2021/01/18 03:28:33;;;;;;;2.15;2.05;;;17.80;64.40;;;;;;5097165;28;20367;-42
2021/01/18 03:30:59;;;;;;;2.45;2.30;;;17.70;64.30;;;;;;5094500;28;20031;-39
2021/01/18 03:33:24;;;;;;;2.38;2.10;;;17.70;64.50;;;;;;5110465;28;20028;-40
2021/01/18 03:35:53;;;;;;;2.35;2.15;;;17.70;64.60;;;;;;5100251;28;20103;-40
2021/01/18 03:38:19;;;;;;;2.30;2.20;;;17.70;64.50;;;;;;5097189;28;20106;-40
2021/01/18 03:40:45;;;;;;;2.30;2.10;;;17.70;64.40;;;;;;5097011;28;20221;-40
2021/01/18 03:43:11;;;;;;;2.33;2.13;;;17.80;64.40;;;;;;5097942;28;20027;-38
2021/01/18 03:45:38;;;;;;;2.30;2.20;;;17.70;64.50;;;;;;5092896;28;20490;-40
2021/01/18 03:48:05;;;;;;;2.65;2.45;;;17.70;64.60;;;;;;5097356;28;20024;-40
2021/01/18 03:50:30;;;;;;;2.22;2.13;;;17.70;64.50;;;;;;5107366;28;20024;-40
2021/01/18 03:52:56;;;;;;;2.40;2.20;;;17.70;64.60;;;;;;5102400;28;20028;-39
2021/01/18 03:55:22;;;;;;;2.13;1.95;;;17.70;64.80;;;;;;5097975;28;20454;-40
2021/01/18 03:57:50;;;;;;;2.22;2.13;;;17.70;64.90;;;;;;5095738;28;20020;-40
2021/01/18 04:00:17;;;;;;;2.10;2.00;;;17.70;64.70;;;;;;5095719;28;20389;-40
2021/01/18 04:02:43;;;;;;;2.25;2.10;;;17.70;65.00;;;;;;5099620;28;20065;-41
2021/01/18 04:05:09;;;;;;;2.10;2.00;;;17.70;64.90;;;;;;5096265;28;20527;-40
2021/01/18 04:07:35;;;;;;;2.35;2.15;;;17.70;65.00;;;;;;5096638;28;20032;-39
2021/01/18 04:10:00;;;;;;;2.00;1.90;;;17.70;64.80;;;;;;5097298;28;20031;-40
2021/01/18 04:12:26;;;;;;;2.08;1.98;;;17.60;64.60;;;;;;5093562;28;20030;-40
2021/01/18 04:14:51;;;;;;;2.88;2.10;;;17.60;64.90;;;;;;5099684;28;20554;-40
2021/01/18 04:17:17;;;;;;;1.90;1.80;;;17.70;64.90;;;;;;5097545;28;20115;-42
2021/01/18 04:19:43;;;;;;;2.20;2.10;;;17.60;64.80;;;;;;5097527;28;20047;-42
2021/01/18 04:22:08;;;;;;;2.03;1.92;;;17.60;64.80;;;;;;5097335;28;20035;-42
2021/01/18 04:24:34;;;;;;;2.30;2.20;;;17.60;64.90;;;;;;5092076;28;20048;-42
2021/01/18 04:27:00;;;;;;;2.22;2.13;;;17.60;64.80;;;;;;5099177;28;20054;-40
2021/01/18 04:29:26;;;;;;;3.00;2.08;;;17.60;64.70;;;;;;5097369;28;20099;-40
2021/01/18 04:31:52;;;;;;;1.90;1.80;;;17.60;64.70;;;;;;5099817;28;20528;-40
2021/01/18 04:34:17;;;;;;;1.75;1.65;;;17.70;64.60;;;;;;5106812;28;20062;-40
2021/01/18 04:36:43;;;;;;;1.90;1.80;;;17.70;64.60;;;;;;5094295;28;20103;-40
2021/01/18 04:39:09;;;;;;;1.67;1.58;;;17.60;64.60;;;;;;5096516;28;20032;-40
2021/01/18 04:41:44;;;;;;;2.20;2.10;;;17.70;64.60;;;;;;5095369;28;20016;-39
2021/01/18 04:44:15;;;;;;;2.13;1.98;;;17.70;64.50;;;;;;5095555;28;20024;-40
2021/01/18 04:46:42;;;;;;;1.90;1.80;;;17.70;64.40;;;;;;5095793;28;20058;-40
2021/01/18 04:49:08;;;;;;;1.90;1.80;;;17.70;64.30;;;;;;5097010;28;20032;-40
2021/01/18 04:51:40;;;;;;;2.13;2.03;;;17.60;64.40;;;;;;5092824;28;20032;-40
2021/01/18 04:54:14;;;;;;;2.00;1.90;;;17.60;64.60;;;;;;5096987;28;20027;-39
2021/01/18 04:56:45;;;;;;;2.13;2.03;;;17.60;64.60;;;;;;5098252;28;20028;-40
2021/01/18 04:59:12;;;;;;;2.30;2.10;;;17.60;64.80;;;;;;5096823;28;20028;-40
2021/01/18 05:01:40;;;;;;;1.90;1.80;;;17.60;64.80;;;;;;5097356;28;20084;-40
2021/01/18 05:04:06;;;;;;;2.13;2.03;;;17.60;64.70;;;;;;5105273;28;20102;-40
2021/01/18 05:06:44;;;;;;;2.28;2.17;;;17.60;64.50;;;;;;5090799;28;20131;-40
2021/01/18 05:09:27;;;;;;;1.83;1.73;;;17.60;64.50;;;;;;5107017;28;20020;-40
2021/01/18 05:11:53;;;;;;;1.77;1.67;;;17.60;64.50;;;;;;5097808;28;20051;-37
2021/01/18 05:14:18;;;;;;;2.00;1.73;;;17.60;64.60;;;;;;5096481;28;20059;-40
2021/01/18 05:16:46;;;;;;;1.85;1.75;;;17.60;64.60;;;;;;5096488;28;20028;-39
2021/01/18 05:19:12;;;;;;;2.10;2.00;;;17.60;64.60;;;;;;5096460;28;20027;-40
2021/01/18 05:21:45;;;;;;;2.08;1.98;;;17.60;64.70;;;;;;5092918;28;20028;-41
2021/01/18 05:24:10;;;;;;;1.75;1.65;;;17.60;64.70;;;;;;5095374;28;20401;-40
2021/01/18 05:26:36;;;;;;;2.50;2.28;;;17.60;64.40;;;;;;5094690;28;20032;-40
2021/01/18 05:29:02;;;;;;;2.28;1.60;;;17.60;64.20;;;;;;5096968;28;20028;-40
2021/01/18 05:31:28;;;;;;;2.60;1.88;;;17.60;64.40;;;;;;5096879;28;20493;-40
2021/01/18 05:33:53;;;;;;;2.40;1.80;;;17.60;64.20;;;;;;5107402;28;20030;-39
2021/01/18 05:36:45;;;;;;;1.80;1.70;;;17.60;64.10;;;;;;5092543;28;20016;-40
2021/01/18 05:39:15;;;;;;;2.10;1.90;;;17.60;64.40;;;;;;5105705;28;20045;-40
2021/01/18 05:41:41;;;;;;;2.80;1.63;;;17.60;63.90;;;;;;5098221;28;20032;-36
2021/01/18 05:44:09;;;;;;;2.25;1.95;;;17.60;63.50;;;;;;5097300;28;20031;-40
2021/01/18 05:46:36;;;;;;;1.92;1.80;;;17.60;64.10;;;;;;5094551;28;20067;-40
2021/01/18 05:49:20;;;;;;;1.80;1.70;;;17.60;63.90;;;;;;5094308;28;20486;-41
2021/01/18 05:51:49;;;;;;;1.85;1.75;;;17.60;65.80;;;;;;5101923;28;20020;-42
2021/01/18 05:54:20;;;;;;;1.77;1.67;;;17.60;65.00;;;;;;5093473;28;20063;-40
2021/01/18 05:56:46;;;;;;;2.40;2.05;;;17.70;65.60;;;;;;5097194;28;20102;-41
2021/01/18 05:59:12;;;;;;;2.10;2.00;;;17.60;66.90;;;;;;5093923;28;20569;-36
2021/01/18 06:01:40;;;;;;;1.92;1.83;;;17.60;67.50;;;;;;5093688;28;20020;-43
2021/01/18 06:04:10;;;;;;;1.95;1.85;;;17.60;66.20;;;;;;5100841;28;20023;-41
2021/01/18 06:06:36;;;;;;;2.00;1.90;;;17.70;65.80;;;;;;5091229;28;20048;-43
2021/01/18 06:09:02;;;;;;;2.00;1.90;;;17.70;66.60;;;;;;5096636;28;20086;-41
2021/01/18 06:11:28;;;;;;;4.35;2.53;;;17.70;67.30;;;;;;5095002;28;20566;-37
2021/01/18 06:14:04;;;;;;;2.53;2.20;;;17.70;67.70;;;;;;5093218;28;20020;-42
2021/01/18 06:16:30;;;;;;;1.80;1.70;;;17.70;67.80;;;;;;5095866;28;20093;-42
2021/01/18 06:19:08;;;;;;;3.20;2.35;;;17.70;66.90;;;;;;5108215;28;20087;-40
2021/01/18 06:21:43;;;;;;;2.08;1.98;;;17.70;66.50;;;;;;5076165;28;20046;-39
2021/01/18 06:24:18;;;;;;;;;;;17.70;67.70;;;;;;5099272;28;20097;-41
2021/01/18 06:26:44;;;;;;;2.40;2.10;;;17.80;67.10;;;;;;5099428;28;19969;-39
2021/01/18 06:29:12;;;;;;;2.22;1.85;;;17.70;68.80;;;;;;5093725;28;20027;-38
2021/01/18 06:31:45;;;;;;;2.65;2.45;;;17.70;68.40;;;;;;5091756;28;20023;-39
2021/01/18 06:34:10;;;;;;;2.70;2.50;;;17.70;68.90;;;;;;5095994;28;20140;-42
2021/01/18 06:36:36;;;;;;;2.35;2.15;;;17.60;68.00;;;;;;5090670;28;20039;-41
2021/01/18 06:39:05;;;;;;;2.85;2.38;;;17.60;69.00;;;;;;5095943;28;20055;-40
2021/01/18 06:41:35;;;;;;;2.42;2.17;;;17.60;68.80;;;;;;5086275;28;20496;-40
2021/01/18 06:44:01;;;;;;;2.85;2.22;;;17.60;68.10;;;;;;5091745;28;20020;-39
2021/01/18 06:46:34;;;;;;;2.60;2.40;;;17.70;67.30;;;;;;5094435;28;20397;-40
2021/01/18 06:49:00;;;;;;;3.35;2.03;;;17.60;68.00;;;;;;5095049;27;20492;-40
2021/01/18 06:51:27;;;;;;;2.40;2.13;;;17.60;67.30;;;;;;5096878;28;20028;-34
2021/01/18 06:53:54;;;;;;;2.50;2.10;;;17.60;68.10;;;;;;5089575;28;20031;-41
2021/01/18 06:56:23;;;;;;;1.92;1.80;;;17.70;68.90;;;;;;5091114;28;20024;-38
2021/01/18 06:58:52;;;;;;;4.15;1.80;;;17.70;69.80;;;;;;5087691;28;20081;-41
2021/01/18 07:01:33;;;;;;;2.45;2.10;;;17.70;67.60;;;;;;5087607;28;20486;-41
2021/01/18 07:04:09;;;;;;;2.00;1.90;;;17.70;70.10;;;;;;5087090;28;20077;-40
2021/01/18 07:06:38;;;;;;;2.72;1.85;;;17.70;70.70;;;;;;5085393;28;20052;-40
2021/01/18 07:09:14;;;;;;;2.20;2.00;;;17.70;70.50;;;;;;5094072;28;20056;-38
2021/01/18 07:11:40;;;;;;;2.80;2.35;;;17.70;68.40;;;;;;5105277;28;20110;-42
2021/01/18 07:14:07;;;;;;;2.15;1.95;;;17.70;68.00;;;;;;5093516;28;20405;-40
2021/01/18 07:16:33;;;;;;;2.05;1.92;;;17.70;67.50;;;;;;5094559;28;20023;-39
2021/01/18 07:19:00;;;;;;;4.80;2.47;;;17.70;72.10;;;;;;5082803;28;20036;-40
2021/01/18 07:21:56;;;;;;;2.65;2.45;;;17.70;71.90;;;;;;5088868;28;20028;-39
2021/01/18 07:24:22;;;;;;;4.85;2.13;;;17.70;71.80;;;;;;5089315;28;20262;-40
2021/01/18 07:26:53;;;;;;;2.30;2.20;;;17.70;73.10;;;;;;5076750;28;20671;-42
2021/01/18 07:29:23;;;;;;;3.08;1.95;;;17.70;70.70;;;;;;5093523;28;20554;-40
2021/01/18 07:31:53;;;;;;;3.28;2.17;;;17.70;73.10;;;;;;5090089;28;20028;-39
2021/01/18 07:34:24;;;;;;;3.03;2.08;;;17.70;73.20;;;;;;5094049;28;20077;-42
2021/01/18 07:36:50;;;;;;;2.55;2.20;;;17.60;72.00;;;;;;5090336;28;20046;-41
2021/01/18 07:39:25;;;;;;;2.85;2.60;;;17.70;70.30;;;;;;5097342;28;20028;-40
2021/01/18 07:41:51;;;;;;;2.25;2.10;;;17.60;71.40;;;;;;5095054;28;20036;-40
2021/01/18 07:44:41;;;;;;;3.80;2.20;;;17.60;71.90;;;;;;5092802;28;20020;-41
2021/01/18 07:47:13;;;;;;;3.08;2.20;;;17.60;71.50;;;;;;5095444;28;20040;-43
2021/01/18 07:49:40;;;;;;;2.33;2.13;;;17.60;71.10;;;;;;5098764;28;20389;-41
2021/01/18 07:52:25;;;;;;;2.22;2.10;;;17.60;71.40;;;;;;5093863;28;20039;-40
2021/01/18 07:54:51;;;;;;;1.90;1.80;;;17.60;70.40;;;;;;5090623;28;20046;-41
2021/01/18 07:57:33;;;;;;;1.77;1.60;;;17.50;70.20;;;;;;5091468;28;20028;-40
2021/01/18 08:00:19;;;;;;;2.17;2.00;;;17.50;69.90;;;;;;5107649;28;20031;-41
2021/01/18 08:02:49;;;;;;;3.80;1.80;;;17.50;69.90;;;;;;5108479;28;20119;-41
2021/01/18 08:05:33;;;;;;;4.45;2.03;;;17.50;69.70;;;;;;5098346;28;20459;-40
2021/01/18 08:08:11;;;;;;;;;;;17.50;69.30;;;;;;5097960;28;20111;-40
2021/01/18 08:10:56;;;;;;;2.17;1.98;;;17.50;69.00;;;;;;5098824;28;19908;-38
2021/01/18 08:13:40;;;;;;;;;;;17.50;69.00;;;;;;5101021;28;20024;-42
2021/01/18 08:16:14;;;;;;;2.40;1.95;;;17.50;68.30;;;;;;5098224;28;19972;-40
2021/01/18 08:19:15;;;;;;;3.83;2.20;;;17.50;68.60;;;;;;5092481;28;20028;-42
2021/01/18 08:21:47;;;;;;;1.95;1.80;;;17.50;67.20;;;;;;5079747;28;20062;-43
2021/01/18 08:24:22;;;;;;;2.55;2.35;;;17.50;66.60;;;;;;5094183;28;20473;-43
2021/01/18 08:26:56;;;;;;;1.58;1.48;;;17.50;67.70;;;;;;5097989;28;20048;-43
2021/01/18 08:29:37;;;;;;;2.03;1.60;;;17.50;67.10;;;;;;5097305;28;20028;-42
2021/01/18 08:32:24;;;;;;;1.58;1.48;;;17.50;69.70;;;;;;5090411;28;20032;-41
2021/01/18 08:35:11;;;;;;;4.63;2.10;;;17.50;67.50;;;;;;5088278;28;20462;-41
2021/01/18 08:37:37;;;;;;;2.67;1.50;;;17.50;69.50;;;;;;5091281;27;20047;-42
2021/01/18 08:40:12;;;;;;;2.78;2.05;;;17.60;69.00;;;;;;5086874;28;20044;-40
2021/01/18 08:42:39;;;;;;;1.70;1.40;;;17.60;67.60;;;;;;5080376;28;20497;-40
2021/01/18 08:45:08;;;;;;;1.67;1.58;;;17.70;67.40;;;;;;5085627;28;20081;-41
2021/01/18 08:47:45;;;;;;;2.72;1.85;;;17.70;69.80;;;;;;5087242;28;20060;-43
2021/01/18 08:50:35;;;;;;;1.65;1.55;;;17.70;68.80;;;;;;5093481;28;20043;-41
2021/01/18 08:53:23;;;;;;;1.52;1.23;;;17.80;71.10;;;;;;5081473;28;20040;-44
2021/01/18 08:55:50;;;;;;;1.75;1.65;;;17.70;69.50;;;;;;5081324;28;20501;-49
2021/01/18 08:58:29;;;;;;;1.60;1.50;;;17.80;70.10;;;;;;5083521;28;20052;-44
2021/01/18 09:00:57;;;;;;;1.83;1.73;;;17.80;69.30;;;;;;5089736;28;20036;-44
2021/01/18 09:03:22;;;;;;;1.70;1.60;;;17.80;70.10;;;;;;5086614;28;20040;-41
2021/01/18 09:05:48;;;;;;;2.00;1.90;;;17.80;69.30;;;;;;5074365;28;20040;-38
2021/01/18 09:08:15;;;;;;;3.13;1.48;;;17.70;69.70;;;;;;5078323;28;20452;-42
2021/01/18 09:10:55;;;;;;;1.60;1.50;;;17.60;69.40;;;;;;5084513;28;20550;-43
2021/01/18 09:13:22;;;;;;;1.70;1.52;;;17.60;68.80;;;;;;5086227;28;20044;-42
2021/01/18 09:15:48;;;;;;;1.98;1.80;;;17.60;69.00;;;;;;5085180;28;20115;-39
2021/01/18 09:18:13;;;;;;;1.80;1.70;;;17.60;69.20;;;;;;5086012;28;20111;-42
2021/01/18 09:20:43;;;;;;;2.85;1.70;;;17.60;69.30;;;;;;5086544;28;20028;-40
2021/01/18 09:23:10;;;;;;;1.58;1.48;;;17.50;69.00;;;;;;5084903;28;20448;-39
2021/01/18 09:25:36;;;;;;;2.00;1.73;;;17.50;69.00;;;;;;5083279;28;20515;-41
2021/01/18 09:28:06;;;;;;;3.22;1.67;;;17.60;68.80;;;;;;5083424;28;20032;-35
2021/01/18 09:30:31;;;;;;;1.98;1.35;;;17.50;69.70;;;;;;5072516;28;20099;-37
2021/01/18 09:32:58;;;;;;;3.63;1.40;;;17.60;69.20;;;;;;5086345;28;20123;-33
2021/01/18 09:35:26;;;;;;;2.00;1.70;;;17.50;67.70;;;;;;5070166;28;20674;-39
2021/01/18 09:37:51;;;;;;;1.70;1.60;;;17.40;67.60;;;;;;5078004;28;20020;-39
2021/01/18 09:40:17;;;;;;;2.65;1.50;;;17.50;68.20;;;;;;5082838;28;20563;-39
2021/01/18 09:42:50;;;;;;;1.95;1.70;;;17.50;67.60;;;;;;5082518;28;20020;-38
2021/01/18 09:45:16;;;;;;;2.17;1.77;;;17.50;67.80;;;;;;5085500;28;21813;-39
2021/01/18 09:47:41;;;;;;;2.25;1.77;;;17.50;68.20;;;;;;5086936;28;20057;-43
2021/01/18 09:50:17;;;;;;;2.65;1.70;;;17.40;68.40;;;;;;5087341;28;20040;-44
2021/01/18 09:52:49;;;;;;;1.83;1.73;;;17.40;67.80;;;;;;5088372;28;20023;-41
2021/01/18 09:55:26;;;;;;;2.33;1.55;;;17.40;68.20;;;;;;5100412;28;20019;-41
2021/01/18 09:58:15;;;;;;;1.50;1.40;;;17.40;67.60;;;;;;5089557;28;20452;-37
2021/01/18 10:00:42;;;;;;;4.13;1.48;;;17.40;67.60;;;;;;5080445;28;20027;-43
2021/01/18 10:03:07;;;;;;;2.10;1.48;;;17.40;67.60;;;;;;5104975;28;20034;-40
2021/01/18 10:05:43;;;;;;;1.60;1.50;;;17.40;66.90;;;;;;5073261;28;20048;-41
2021/01/18 10:08:21;;;;;;;1.60;1.50;;;17.40;67.30;;;;;;5090495;28;20030;-43
2021/01/18 10:10:48;;;;;;;1.50;1.40;;;17.40;66.90;;;;;;5091699;28;20028;-41
2021/01/18 10:13:17;;;;;;;1.80;1.52;;;17.50;67.10;;;;;;5092285;28;20038;-43
2021/01/18 10:15:43;;;;;;;1.58;1.48;;;17.50;66.70;;;;;;5088343;28;20626;-41
2021/01/18 10:18:26;;;;;;;1.45;1.35;;;17.50;66.70;;;;;;5093657;28;20378;-42
2021/01/18 10:20:53;;;;;;;2.15;1.38;;;17.50;66.30;;;;;;5092316;28;20443;-39
2021/01/18 10:23:19;;;;;;;1.70;1.50;;;17.40;66.60;;;;;;5092227;28;20042;-44
2021/01/18 10:25:44;;;;;;;1.83;1.73;;;17.40;66.30;;;;;;5092626;28;20035;-40
2021/01/18 10:28:10;;;;;;;1.70;1.60;;;17.40;66.10;;;;;;5091074;28;20027;-38
2021/01/18 10:30:35;;;;;;;1.70;1.60;;;17.40;66.10;;;;;;5092607;28;20044;-40
2021/01/18 10:33:01;;;;;;;1.98;1.88;;;17.40;65.90;;;;;;5108921;28;20561;-41
2021/01/18 10:35:35;;;;;;;2.40;1.50;;;17.40;65.90;;;;;;5092601;28;20106;-42
2021/01/18 10:38:19;;;;;;;1.73;1.63;;;17.40;66.10;;;;;;5089816;28;20024;-42
2021/01/18 10:41:08;;;;;;;1.77;1.58;;;17.40;65.90;;;;;;5093062;28;20031;-42
2021/01/18 10:43:33;;;;;;;1.50;1.40;;;17.40;66.00;;;;;;5099179;28;20020;-42
2021/01/18 10:45:59;;;;;;;2.35;1.83;;;17.50;66.20;;;;;;5103231;28;20470;-42
2021/01/18 10:48:32;;;;;;;3.63;1.67;;;17.40;65.60;;;;;;5088404;28;20016;-34
2021/01/18 10:50:58;;;;;;;1.73;1.63;;;17.40;65.70;;;;;;5096756;28;20031;-26
2021/01/18 10:53:28;;;;;;;1.60;1.50;;;17.40;65.80;;;;;;5099588;28;20023;-42
2021/01/18 10:56:15;;;;;;;1.63;1.52;;;17.40;66.00;;;;;;5096039;28;20020;-41
2021/01/18 10:58:41;;;;;;;1.65;1.55;;;17.40;65.70;;;;;;5090697;28;20107;-41
2021/01/18 11:01:11;;;;;;;1.58;1.40;;;17.40;65.30;;;;;;5089882;28;20111;-42
2021/01/18 11:03:37;;;;;;;1.40;1.30;;;17.40;65.30;;;;;;5099813;28;20028;-44
2021/01/18 11:06:13;;;;;;;1.52;1.40;;;17.40;65.50;;;;;;5092429;28;20047;-43
2021/01/18 11:08:39;;;;;;;1.20;1.10;;;17.40;65.30;;;;;;5092384;28;20281;-42
2021/01/18 11:11:24;;;;;;;1.55;1.40;;;17.40;65.30;;;;;;4745303;28;10000483;-42
2021/01/18 11:13:59;;;;;;;1.35;1.20;;;17.50;65.60;;;;;;5095880;28;20028;-42
2021/01/18 11:16:24;;;;;;;2.13;1.30;;;17.40;65.60;;;;;;5097382;28;20114;-42
2021/01/18 11:18:50;;;;;;;2.40;1.58;;;17.40;65.00;;;;;;5097511;28;20096;-41
2021/01/18 11:21:27;;;;;;;1.58;1.48;;;17.40;65.30;;;;;;5088926;28;20035;-35
2021/01/18 11:23:53;;;;;;;2.15;1.40;;;17.40;65.30;;;;;;5092816;28;20517;-39
2021/01/18 11:26:19;;;;;;;1.50;1.40;;;17.40;65.30;;;;;;5091025;28;20421;-36
2021/01/18 11:28:45;;;;;;;1.90;1.60;;;17.40;65.80;;;;;;5092510;28;20023;-39
2021/01/18 11:31:12;;;;;;;1.33;1.23;;;17.40;64.90;;;;;;5103714;28;20036;-42
2021/01/18 11:33:37;;;;;;;1.50;1.40;;;17.50;65.30;;;;;;5091800;28;20098;-40
2021/01/18 11:36:03;;;;;;;1.40;1.30;;;17.50;64.60;;;;;;5095677;28;20067;-40
2021/01/18 11:38:29;;;;;;;1.63;1.30;;;17.60;65.00;;;;;;5094441;28;20020;-43
2021/01/18 11:40:54;;;;;;;4.13;1.70;;;17.50;64.10;;;;;;5090597;28;20043;-33
2021/01/18 11:43:20;;;;;;;1.60;1.50;;;17.60;65.70;;;;;;5080128;28;20028;-37
2021/01/18 11:45:46;;;;;;;2.50;1.50;;;17.50;63.70;;;;;;5082495;28;20040;-41
2021/01/18 11:48:11;;;;;;;1.50;1.40;;;17.50;64.50;;;;;;5092163;28;20020;-42
2021/01/18 11:50:37;;;;;;;1.38;1.27;;;17.50;64.30;;;;;;5096658;28;20088;-40
2021/01/18 11:53:03;;;;;;;3.00;1.48;;;17.50;64.30;;;;;;5098197;28;20015;-34
2021/01/18 11:55:28;;;;;;;1.80;1.70;;;17.50;64.50;;;;;;5095944;28;20477;-38
2021/01/18 11:57:54;;;;;;;1.70;1.60;;;17.60;64.60;;;;;;5103404;28;20019;-45
2021/01/18 12:00:24;;;;;;;2.05;1.67;;;17.60;64.50;;;;;;5085634;28;20028;-40
2021/01/18 12:02:57;;;;;;;1.83;1.73;;;17.60;66.90;;;;;;5093219;28;20039;-41
2021/01/18 12:05:25;;;;;;;1.52;1.42;;;17.70;67.00;;;;;;5093217;28;20133;-34
2021/01/18 12:07:52;;;;;;;2.75;1.30;;;17.80;67.00;;;;;;5098232;27;20034;-36
2021/01/18 12:10:18;;;;;;;2.03;1.90;;;17.80;66.50;;;;;;5088636;28;20039;-40
2021/01/18 12:12:43;;;;;;;1.98;1.65;;;17.80;66.40;;;;;;5091548;28;20012;-38
2021/01/18 12:15:09;;;;;;;1.50;1.40;;;17.80;66.70;;;;;;5090679;28;20497;-41
2021/01/18 12:17:37;;;;;;;2.15;1.80;;;17.80;66.10;;;;;;5100380;28;20058;-39
2021/01/18 12:20:03;;;;;;;1.60;1.50;;;17.80;66.20;;;;;;5098292;28;20031;-40
2021/01/18 12:22:28;;;;;;;2.10;1.38;;;17.80;66.00;;;;;;5097083;28;20096;-38
2021/01/18 12:24:54;;;;;;;1.85;1.75;;;17.80;66.00;;;;;;5103282;28;20485;-40
2021/01/18 12:27:19;;;;;;;1.70;1.60;;;17.70;66.00;;;;;;5089387;27;20059;-41
2021/01/18 12:29:45;;;;;;;1.35;1.10;;;17.70;65.90;;;;;;5093742;28;20074;-40
2021/01/18 12:32:10;;;;;;;1.35;1.23;;;17.80;65.90;;;;;;5094081;28;20020;-40
2021/01/18 12:34:36;;;;;;;2.53;1.50;;;17.80;65.90;;;;;;5094019;28;20514;-40
2021/01/18 12:37:01;;;;;;;1.40;1.30;;;17.70;66.00;;;;;;5094057;28;20040;-40
2021/01/18 12:39:27;;;;;;;2.35;1.48;;;17.60;65.60;;;;;;5090055;28;20087;-34
2021/01/18 12:41:53;;;;;;;1.58;1.35;;;17.60;65.60;;;;;;5093588;28;20405;-40
2021/01/18 12:44:18;;;;;;;3.70;1.40;;;17.60;65.80;;;;;;5079721;28;20038;-37
2021/01/18 12:46:46;;;;;;;1.65;1.20;;;17.60;65.70;;;;;;5079100;28;20542;-44
2021/01/18 12:49:11;;;;;;;1.30;1.20;;;17.60;65.70;;;;;;5079654;28;20063;-34
2021/01/18 12:51:37;;;;;;;1.10;1.10;;;17.60;66.00;;;;;;5079623;28;20561;-45
2021/01/18 12:54:03;;;;;;;1.30;1.20;;;17.60;65.70;;;;;;5078853;28;20081;-33
2021/01/18 12:56:28;;;;;;;1.38;1.15;;;17.60;65.50;;;;;;5079038;28;20127;-35
2021/01/18 12:58:55;;;;;;;1.40;1.30;;;17.60;65.70;;;;;;5080008;28;20150;-38
2021/01/18 13:01:30;;;;;;;1.20;1.10;;;17.50;65.60;;;;;;5080317;28;20125;-38